Time;durP1;ratioP1;P1;durP2;ratioP2;P2;SDS_P1;SDS_P2;PMS_P1;PMS_P2;Temp;Humidity;BMP_temperature;BMP_pressure;BME280_temperature;BME280_humidity;BME280_pressure;Samples;Min_cycle;Max_cycle;Signal;HPM_P1;HPM_P2
2022/06/01 00:00:08;;;;;;;2.60;2.20;;;;;;;16.25;67.89;100423.69;1715871;82;20976;-68
2022/06/01 00:02:36;;;;;;;3.08;2.30;;;;;;;16.23;68.00;100417.68;1722000;82;21965;-68
2022/06/01 00:05:04;;;;;;;3.10;2.08;;;;;;;16.21;68.06;100416.97;1723681;82;21410;-68
2022/06/01 00:07:31;;;;;;;3.58;2.05;;;;;;;16.21;68.08;100419.64;1708350;82;20992;-68
2022/06/01 00:09:57;;;;;;;4.65;2.00;;;;;;;16.23;68.21;100415.02;1704994;82;20996;-68
2022/06/01 00:12:23;;;;;;;5.28;2.33;;;;;;;16.20;68.32;100413.47;1713166;82;20988;-66
2022/06/01 00:14:51;;;;;;;2.62;1.95;;;;;;;16.20;68.30;100429.47;1701248;82;21802;-68
2022/06/01 00:17:20;;;;;;;2.70;1.92;;;;;;;16.20;68.38;100421.97;1700686;82;20956;-67
2022/06/01 00:19:47;;;;;;;2.40;2.10;;;;;;;16.19;68.44;100421.13;1659185;84;21685;-69
2022/06/01 00:22:14;;;;;;;3.15;2.30;;;;;;;16.19;68.37;100426.97;1675382;84;21075;-71
2022/06/01 00:24:42;;;;;;;4.72;2.20;;;;;;;16.19;68.39;100426.97;1697857;82;21054;-68
2022/06/01 00:27:10;;;;;;;3.37;1.98;;;;;;;16.18;68.37;100427.96;1715055;83;22681;-67
2022/06/01 00:29:37;;;;;;;3.85;2.10;;;;;;;16.16;68.43;100421.45;1712294;83;21006;-68
2022/06/01 00:32:05;;;;;;;4.53;2.40;;;;;;;16.14;68.43;100423.45;1729290;82;21019;-68
2022/06/01 00:34:31;;;;;;;5.03;2.20;;;;;;;16.13;68.49;100419.61;1683951;84;21063;-67
2022/06/01 00:36:58;;;;;;;6.47;2.00;;;;;;;16.11;68.57;100417.58;1711631;83;20957;-69
2022/06/01 00:39:26;;;;;;;3.12;2.20;;;;;;;16.08;68.69;100412.07;1693796;82;21961;-67
2022/06/01 00:41:53;;;;;;;6.03;2.20;;;;;;;16.07;68.70;100418.40;1687762;82;21004;-67
2022/06/01 00:44:20;;;;;;;4.72;2.35;;;;;;;16.06;68.68;100408.73;1698649;82;21094;-66
2022/06/01 00:46:46;;;;;;;4.22;2.27;;;;;;;16.05;68.72;100409.73;1695131;82;20984;-66
2022/06/01 00:49:18;;;;;;;2.35;1.80;;;;;;;16.03;68.73;100410.39;1693943;82;20999;-67
2022/06/01 00:51:45;;;;;;;2.22;2.00;;;;;;;16.00;68.86;100410.18;1695821;82;21886;-67
2022/06/01 00:54:11;;;;;;;3.60;2.10;;;;;;;15.97;68.87;100409.17;1704235;82;21063;-68
2022/06/01 00:56:47;;;;;;;4.53;2.30;;;;;;;15.95;68.90;100413.83;1713175;82;20965;-68
2022/06/01 00:59:17;;;;;;;3.37;2.10;;;;;;;15.93;69.00;100408.32;1699353;82;20973;-67
2022/06/01 01:01:44;;;;;;;4.00;2.30;;;;;;;15.87;69.18;100403.11;1715520;82;21100;-67
2022/06/01 01:04:10;;;;;;;2.52;2.08;;;;;;;15.87;69.29;100404.44;1686886;83;21905;-67
2022/06/01 01:06:39;;;;;;;3.80;1.92;;;;;;;15.86;69.31;100400.60;1722874;82;20961;-67
2022/06/01 01:09:08;;;;;;;2.85;2.22;;;;;;;15.86;69.46;100399.27;1699105;82;20973;-67
2022/06/01 01:11:47;;;;;;;4.95;2.30;;;;;;;15.85;69.51;100406.42;1749484;80;21415;-69
2022/06/01 01:14:14;;;;;;;2.47;2.27;;;;;;;15.84;69.59;100407.92;1752197;80;21456;-67
2022/06/01 01:16:41;;;;;;;4.97;2.12;;;;;;;15.83;69.67;100404.42;1734405;82;21745;-67
2022/06/01 01:19:16;;;;;;;6.22;2.20;;;;;;;15.83;69.66;100405.75;1752257;80;20946;-67
2022/06/01 01:21:56;;;;;;;2.27;2.00;;;;;;;15.83;69.62;100402.25;1714160;81;21460;-67
2022/06/01 01:24:50;;;;;;;5.37;2.25;;;;;;;15.83;69.71;100404.42;1751291;81;21052;-68
2022/06/01 01:27:17;;;;;;;2.52;2.05;;;;;;;15.83;69.71;100396.92;1663001;84;20987;-68
2022/06/01 01:29:45;;;;;;;4.20;2.10;;;;;;;15.80;69.68;100392.72;1698487;82;22628;-68
2022/06/01 01:32:13;;;;;;;7.17;2.15;;;;;;;15.80;69.71;100387.39;1773863;80;21074;-68
2022/06/01 01:34:40;;;;;;;4.25;2.30;;;;;;;15.81;69.61;100393.06;1718846;82;21053;-67
2022/06/01 01:37:14;;;;;;;3.52;2.25;;;;;;;15.82;69.57;100385.41;1721073;81;21441;-67
2022/06/01 01:39:41;;;;;;;3.15;2.17;;;;;;;15.82;69.47;100385.41;1710406;81;21011;-68
2022/06/01 01:42:07;;;;;;;3.15;2.12;;;;;;;15.80;69.49;100395.88;1739254;81;21742;-68
2022/06/01 01:45:04;;;;;;;3.85;2.27;;;;;;;15.78;69.53;100397.88;1741525;80;21136;-68
2022/06/01 01:47:37;;;;;;;3.37;2.20;;;;;;;15.76;69.52;100401.19;1738023;81;20966;-68
2022/06/01 01:50:09;;;;;;;4.65;2.22;;;;;;;15.73;69.58;100397.02;1755814;80;22179;-69
2022/06/01 01:52:36;;;;;;;3.60;2.17;;;;;;;15.71;69.54;100398.48;1775689;80;21444;-68
2022/06/01 01:55:08;;;;;;;4.33;2.27;;;;;;;15.71;69.55;100406.97;1751944;80;22645;-67
2022/06/01 01:58:11;;;;;;;4.55;2.20;;;;;;;15.71;69.50;100408.30;1765401;80;21107;-68
2022/06/01 02:00:44;;;;;;;2.77;2.12;;;;;;;15.70;69.49;100400.80;1767459;80;21118;-66
2022/06/01 02:03:31;;;;;;;2.40;2.15;;;;;;;15.68;69.53;100401.45;1714948;83;20988;-66
2022/06/01 02:06:14;;;;;;;4.92;2.02;;;;;;;15.65;69.63;100400.94;1686801;83;21547;-67
2022/06/01 02:09:01;;;;;;;2.92;2.45;;;;;;;15.63;69.73;100396.23;1686848;85;21522;-66
2022/06/01 02:14:51;;;;;;;4.58;2.27;;;;;;;15.61;69.89;100412.88;1676103;83;21028;-67
2022/06/01 02:17:24;;;;;;;2.40;1.92;;;;;;;15.62;70.00;100395.91;1664987;85;21420;-67
2022/06/01 02:19:58;;;;;;;4.08;2.27;;;;;;;15.64;70.04;100396.61;1680446;83;21021;-69
2022/06/01 02:22:25;;;;;;;2.65;2.02;;;;;;;15.64;70.09;100395.28;1685912;83;25757;-68
2022/06/01 02:24:53;;;;;;;4.85;2.37;;;;;;;15.64;70.13;100397.45;1674090;83;20953;-67
2022/06/01 02:27:19;;;;;;;3.08;2.17;;;;;;;15.63;70.27;100401.10;1691797;83;21535;-67
2022/06/01 02:29:54;;;;;;;2.47;2.02;;;;;;;15.63;70.33;100402.89;1687695;83;20946;-67
2022/06/01 02:32:21;;;;;;;3.15;2.15;;;;;;;15.63;70.42;100398.91;1656853;85;21029;-67
2022/06/01 02:34:48;;;;;;;5.45;2.17;;;;;;;15.65;70.52;100393.79;1683462;83;21904;-67
2022/06/01 02:37:14;;;;;;;2.70;2.30;;;;;;;15.66;70.53;100391.96;1681315;85;20974;-68
2022/06/01 02:39:44;;;;;;;4.05;2.25;;;;;;;15.68;70.57;100397.96;1684202;83;21025;-69
2022/06/01 02:42:26;;;;;;;3.80;2.30;;;;;;;15.68;70.56;100400.13;1708018;82;21056;-68
2022/06/01 02:45:01;;;;;;;3.92;2.30;;;;;;;15.72;70.55;100403.31;1677529;83;21507;-68
2022/06/01 02:47:30;;;;;;;3.83;2.40;;;;;;;15.74;70.53;100401.35;1680151;85;22574;-68
2022/06/01 02:49:59;;;;;;;2.75;2.20;;;;;;;15.77;70.44;100400.20;1737499;80;21503;-68
2022/06/01 02:52:27;;;;;;;2.77;2.20;;;;;;;15.78;70.37;100395.20;1681761;83;20973;-68
2022/06/01 02:54:54;;;;;;;4.05;2.30;;;;;;;15.78;70.32;100391.21;1694665;83;20969;-67
2022/06/01 02:57:20;;;;;;;3.47;2.33;;;;;;;15.79;70.31;100397.71;1705141;83;21476;-69
2022/06/01 02:59:48;;;;;;;3.72;2.02;;;;;;;15.80;70.35;100392.72;1683649;84;21842;-67
2022/06/01 03:02:14;;;;;;;2.80;2.00;;;;;;;15.83;70.32;100394.27;1705126;83;20833;-67
2022/06/01 03:04:42;;;;;;;4.10;2.00;;;;;;;15.86;70.27;100396.61;1734126;80;21034;-67
2022/06/01 03:07:10;;;;;;;5.28;2.30;;;;;;;15.88;70.24;100399.45;1740616;80;21412;-67
2022/06/01 03:09:37;;;;;;;2.30;2.10;;;;;;;15.92;70.25;100398.16;1739144;81;20972;-67
2022/06/01 03:12:05;;;;;;;4.92;2.30;;;;;;;15.97;70.16;100397.68;1736295;81;21945;-67
2022/06/01 03:14:33;;;;;;;3.42;2.02;;;;;;;16.04;70.09;100397.41;1727213;81;21000;-66
2022/06/01 03:17:00;;;;;;;3.12;1.90;;;;;;;16.08;69.90;100397.92;1757369;81;21049;-67
2022/06/01 03:19:26;;;;;;;2.72;2.25;;;;;;;16.14;69.86;100398.63;1761275;81;20943;-67
2022/06/01 03:21:53;;;;;;;3.87;2.20;;;;;;;16.18;69.65;100389.31;1750379;81;21035;-67
2022/06/01 03:24:20;;;;;;;2.72;2.20;;;;;;;16.21;69.32;100401.85;1734878;81;21868;-68
2022/06/01 03:26:46;;;;;;;3.22;2.20;;;;;;;16.25;69.03;100397.03;1740488;81;20928;-68
2022/06/01 03:29:13;;;;;;;3.58;2.40;;;;;;;16.27;68.89;100397.70;1737584;81;21002;-66
2022/06/01 03:31:40;;;;;;;3.12;2.10;;;;;;;16.27;68.67;100387.88;1765649;81;20986;-67
2022/06/01 03:34:06;;;;;;;3.15;2.20;;;;;;;16.27;68.52;100388.38;1763827;81;21470;-68
2022/06/01 03:36:34;;;;;;;3.77;2.15;;;;;;;16.31;68.58;100391.08;1758394;81;21834;-67
2022/06/01 03:39:03;;;;;;;4.22;2.30;;;;;;;16.38;68.58;100400.09;1703155;82;21030;-66
2022/06/01 03:41:29;;;;;;;5.58;2.25;;;;;;;16.42;68.39;100402.80;1692679;83;21058;-67
2022/06/01 03:46:41;;;;;;;2.58;2.10;;;;;;;16.49;68.15;100402.48;1760596;81;20999;-67
2022/06/01 03:49:07;;;;;;;4.10;2.30;;;;;;;16.54;68.00;100403.34;1727491;81;21790;-67
2022/06/01 03:51:34;;;;;;;4.28;2.17;;;;;;;16.54;68.02;100410.84;1698130;83;21003;-67
2022/06/01 03:54:01;;;;;;;3.87;2.30;;;;;;;16.56;67.93;100404.02;1702529;83;21029;-68
2022/06/01 03:56:27;;;;;;;5.72;2.47;;;;;;;16.58;67.86;100406.02;1700636;83;21085;-67
2022/06/01 03:58:54;;;;;;;3.95;2.60;;;;;;;16.58;67.92;100408.19;1685515;83;21044;-67
2022/06/01 04:01:21;;;;;;;3.92;2.45;;;;;;;16.60;67.78;100409.39;1714560;82;21834;-67
2022/06/01 04:03:49;;;;;;;4.00;2.90;;;;;;;16.61;67.73;100403.06;1713254;83;20963;-68
2022/06/01 04:06:15;;;;;;;3.75;2.90;;;;;;;16.66;67.75;100403.89;1719808;82;20956;-68
2022/06/01 04:08:42;;;;;;;5.20;2.90;;;;;;;16.69;67.65;100407.09;1684201;83;21046;-67
2022/06/01 04:11:10;;;;;;;6.80;2.85;;;;;;;16.74;67.60;100403.97;1708076;83;21578;-68
2022/06/01 04:13:37;;;;;;;3.58;2.72;;;;;;;16.78;67.51;100410.64;1709029;82;21771;-66
2022/06/01 04:16:04;;;;;;;4.80;2.60;;;;;;;16.85;67.56;100409.84;1723459;82;20933;-71
2022/06/01 04:18:31;;;;;;;5.12;3.15;;;;;;;16.94;67.45;100406.70;1704351;82;21075;-70
2022/06/01 04:20:58;;;;;;;4.30;2.70;;;;;;;17.01;67.45;100415.73;1718903;82;21064;-68
2022/06/01 04:23:25;;;;;;;5.97;2.95;;;;;;;17.10;67.23;100413.93;1703186;82;21104;-69
2022/06/01 04:25:51;;;;;;;10.70;2.80;;;;;;;17.14;66.88;100414.76;1721726;82;21801;-70
2022/06/01 04:28:19;;;;;;;4.15;2.42;;;;;;;17.16;66.58;100418.59;1704374;82;21044;-69
2022/06/01 04:30:46;;;;;;;3.92;2.60;;;;;;;17.15;66.48;100421.77;1710367;82;21044;-68
2022/06/01 04:33:13;;;;;;;5.50;2.50;;;;;;;17.19;66.45;100420.13;1648505;84;21060;-68
2022/06/01 04:35:39;;;;;;;4.75;2.60;;;;;;;17.25;66.46;100417.61;1710058;82;21636;-70
2022/06/01 04:38:14;;;;;;;3.00;2.70;;;;;;;17.32;66.38;100408.46;1695031;82;21933;-69
2022/06/01 04:40:48;;;;;;;4.95;2.90;;;;;;;17.41;66.24;100412.31;1694509;84;21473;-69
2022/06/01 04:43:18;;;;;;;3.67;2.80;;;;;;;17.48;65.99;100414.33;1699794;82;21051;-69
2022/06/01 04:45:44;;;;;;;3.30;2.72;;;;;;;17.52;65.88;100412.48;1698764;82;21351;-72
2022/06/01 04:48:11;;;;;;;5.78;2.60;;;;;;;17.59;65.63;100414.84;1707260;82;21031;-68
2022/06/01 04:50:46;;;;;;;3.40;2.70;;;;;;;17.61;65.49;100423.52;1694649;83;21954;-69
2022/06/01 04:53:14;;;;;;;3.85;2.92;;;;;;;17.67;65.70;100416.69;1673061;84;21087;-69
2022/06/01 04:55:41;;;;;;;3.80;2.60;;;;;;;17.72;65.38;100410.36;1703752;82;21024;-72
2022/06/01 04:58:08;;;;;;;5.80;2.80;;;;;;;17.74;65.32;100421.20;1680115;82;21058;-68
2022/06/01 05:00:35;;;;;;;4.90;2.87;;;;;;;17.81;65.32;100416.53;1710910;82;21104;-68
2022/06/01 05:03:02;;;;;;;4.25;2.62;;;;;;;17.89;65.06;100423.22;1706122;83;21923;-69
2022/06/01 05:05:29;;;;;;;6.92;2.60;;;;;;;17.95;64.86;100426.53;1690629;82;21078;-69
2022/06/01 05:07:55;;;;;;;4.87;2.92;;;;;;;18.02;64.79;100431.55;1704375;82;21106;-70
2022/06/01 05:10:22;;;;;;;4.00;2.70;;;;;;;18.08;64.82;100429.55;1725064;81;21049;-70
2022/06/01 05:12:50;;;;;;;5.72;2.72;;;;;;;18.12;64.51;100426.02;1713402;82;21075;-70
2022/06/01 05:15:18;;;;;;;3.85;2.37;;;;;;;18.15;64.32;100430.55;1696117;82;22579;-68
2022/06/01 05:17:46;;;;;;;5.40;2.60;;;;;;;18.18;64.26;100418.17;1687298;82;21721;-70
2022/06/01 05:20:13;;;;;;;5.97;2.70;;;;;;;18.27;64.35;100421.16;1694031;84;20963;-69
2022/06/01 05:22:41;;;;;;;4.80;2.70;;;;;;;18.30;63.98;100416.80;1694652;82;21090;-69
2022/06/01 05:25:08;;;;;;;5.65;3.30;;;;;;;18.36;64.12;100431.34;1699353;82;21107;-68
2022/06/01 05:27:35;;;;;;;6.33;3.12;;;;;;;18.43;64.10;100422.97;1697211;82;21665;-71
2022/06/01 05:30:05;;;;;;;4.25;3.00;;;;;;;18.51;64.06;100423.43;1692644;84;21043;-69
2022/06/01 05:32:31;;;;;;;5.40;2.98;;;;;;;18.58;63.97;100427.09;1712430;82;21044;-69
2022/06/01 05:34:58;;;;;;;7.62;3.02;;;;;;;18.65;63.75;100427.28;1699988;82;21055;-69
2022/06/01 05:37:24;;;;;;;4.08;3.00;;;;;;;18.70;63.63;100428.91;1684034;82;21106;-69
2022/06/01 05:39:52;;;;;;;6.00;2.83;;;;;;;18.76;63.34;100433.08;1704097;82;21661;-69
2022/06/01 05:42:18;;;;;;;3.80;2.77;;;;;;;18.80;63.27;100435.73;1722204;82;21023;-70
2022/06/01 05:44:46;;;;;;;3.17;2.67;;;;;;;18.92;63.43;100438.05;1731495;82;21519;-70
2022/06/01 05:47:13;;;;;;;4.58;2.90;;;;;;;19.03;63.12;100430.45;1698809;82;21099;-69
2022/06/01 05:49:39;;;;;;;4.60;3.20;;;;;;;19.10;62.91;100442.61;1696110;82;21282;-70
2022/06/01 05:52:07;;;;;;;7.65;2.98;;;;;;;19.18;63.00;100441.23;1715763;83;21991;-72
2022/06/01 05:54:34;;;;;;;4.47;3.02;;;;;;;19.30;63.08;100447.02;1724239;82;21529;-69
2022/06/01 05:57:00;;;;;;;9.18;3.10;;;;;;;19.41;62.69;100443.97;1687222;83;21055;-71
2022/06/01 05:59:27;;;;;;;6.03;2.72;;;;;;;19.50;62.48;100440.73;1684504;83;21032;-68
2022/06/01 06:01:53;;;;;;;4.87;3.30;;;;;;;19.60;62.74;100443.53;1743154;82;21052;-70
2022/06/01 06:04:20;;;;;;;4.35;3.35;;;;;;;19.73;62.25;100448.28;1698294;82;21833;-69
2022/06/01 06:06:46;;;;;;;6.53;2.95;;;;;;;19.73;61.83;100442.41;1678935;83;21034;-70
2022/06/01 06:09:13;;;;;;;5.40;3.00;;;;;;;19.72;61.78;100435.39;1734082;81;21046;-69
2022/06/01 06:11:40;;;;;;;4.90;3.50;;;;;;;19.75;61.97;100437.37;1736804;81;21113;-70
2022/06/01 06:14:09;;;;;;;4.03;3.20;;;;;;;19.78;61.96;100435.67;1687561;83;21774;-69
2022/06/01 06:16:42;;;;;;;5.08;3.25;;;;;;;19.86;62.20;100428.39;1699090;83;21932;-72
2022/06/01 06:19:07;;;;;;;4.12;3.02;;;;;;;20.01;62.12;100423.92;1695280;83;21486;-70
2022/06/01 06:21:33;;;;;;;4.80;2.90;;;;;;;20.16;61.67;100421.24;1725980;81;21003;-70
2022/06/01 06:24:07;;;;;;;5.87;3.00;;;;;;;20.27;61.51;100419.99;1724457;81;21628;-68
2022/06/01 06:26:35;;;;;;;3.90;2.90;;;;;;;20.40;61.60;100426.87;1710449;81;21030;-70
2022/06/01 06:29:03;;;;;;;5.97;3.40;;;;;;;20.55;61.30;100421.02;1726189;81;21990;-70
2022/06/01 06:31:30;;;;;;;3.98;3.20;;;;;;;20.64;60.85;100426.30;1724353;81;21065;-71
2022/06/01 06:33:58;;;;;;;4.65;3.12;;;;;;;20.66;60.45;100418.41;1721562;83;21039;-69
2022/06/01 06:36:24;;;;;;;5.45;3.12;;;;;;;20.65;60.65;100415.89;1732772;81;21034;-68
2022/06/01 06:38:51;;;;;;;4.15;3.25;;;;;;;20.69;60.51;100414.00;1696446;83;21039;-68
2022/06/01 06:41:18;;;;;;;9.10;3.17;;;;;;;20.78;60.90;100412.88;1707755;83;22130;-68
2022/06/01 06:43:46;;;;;;;4.83;2.90;;;;;;;20.91;60.40;100409.52;1699783;83;21420;-71
2022/06/01 06:46:16;;;;;;;4.10;3.00;;;;;;;21.02;60.40;100404.17;1731444;81;21505;-68
2022/06/01 06:48:45;;;;;;;3.75;3.00;;;;;;;21.13;60.12;100403.67;1696451;83;21043;-66
2022/06/01 06:51:12;;;;;;;4.60;2.77;;;;;;;21.21;59.70;100400.05;1663524;85;21011;-67
2022/06/01 06:53:41;;;;;;;5.08;2.80;;;;;;;21.26;59.83;100396.30;1671333;84;21937;-68
2022/06/01 06:56:10;;;;;;;5.22;2.90;;;;;;;21.37;59.74;100399.33;1715585;83;21043;-69
2022/06/01 06:58:37;;;;;;;4.33;3.10;;;;;;;21.53;59.91;100390.19;1674498;84;21126;-69
2022/06/01 07:01:04;;;;;;;9.40;3.60;;;;;;;21.74;59.50;100392.03;1748167;81;21024;-69
2022/06/01 07:03:32;;;;;;;5.30;3.02;;;;;;;21.90;58.93;100394.93;1744908;81;21067;-68
2022/06/01 07:06:12;;;;;;;4.55;3.00;;;;;;;21.99;58.60;100394.59;1704018;82;21966;-68
2022/06/01 07:08:48;;;;;;;3.95;2.85;;;;;;;22.12;58.38;100397.94;1685573;84;21040;-70
2022/06/01 07:11:16;;;;;;;4.90;2.52;;;;;;;22.22;57.81;100394.39;1688737;84;21036;-69
2022/06/01 07:13:44;;;;;;;7.42;3.05;;;;;;;22.31;57.67;100395.58;1723811;83;21020;-70
2022/06/01 07:16:18;;;;;;;4.17;2.65;;;;;;;22.38;57.19;100379.77;1711969;82;21060;-68
2022/06/01 07:18:48;;;;;;;3.62;2.45;;;;;;;22.46;57.58;100384.16;1694299;82;21941;-67
2022/06/01 07:21:16;;;;;;;3.60;2.80;;;;;;;22.61;57.75;100383.53;1694598;84;21024;-66
2022/06/01 07:23:43;;;;;;;3.37;2.70;;;;;;;22.82;57.80;100386.10;1684725;83;22125;-71
2022/06/01 07:26:14;;;;;;;3.80;3.00;;;;;;;23.00;56.82;100383.41;1710863;82;21075;-68
2022/06/01 07:28:40;;;;;;;4.92;2.70;;;;;;;23.13;56.37;100378.87;1697056;82;21066;-69
2022/06/01 07:31:07;;;;;;;6.08;2.75;;;;;;;23.24;56.41;100376.61;1693549;82;23170;-68
2022/06/01 07:33:35;;;;;;;5.37;3.02;;;;;;;23.38;55.65;100385.05;1690672;82;21079;-69
2022/06/01 07:36:05;;;;;;;6.65;2.60;;;;;;;23.48;55.45;100387.34;1689370;82;21119;-71
2022/06/01 07:44:34;;;;;;;4.33;2.80;;;;;;;23.84;54.71;100377.02;1708969;82;21962;-69
2022/06/01 07:47:01;;;;;;;6.17;2.70;;;;;;;23.97;54.38;100379.70;1712527;82;21091;-68
2022/06/01 07:49:29;;;;;;;3.87;2.60;;;;;;;24.05;53.35;100376.48;1703713;84;21047;-69
2022/06/01 07:51:56;;;;;;;4.65;2.90;;;;;;;24.10;53.87;100377.49;1709094;83;21055;-72
2022/06/01 07:54:22;;;;;;;5.87;2.60;;;;;;;24.16;53.11;100371.27;1695994;82;21051;-70
2022/06/01 07:56:49;;;;;;;5.35;2.75;;;;;;;24.21;53.38;100370.09;1694232;82;21876;-70
2022/06/01 07:59:16;;;;;;;6.45;2.70;;;;;;;24.32;53.03;100374.08;1696246;82;21036;-70
2022/06/01 08:01:43;;;;;;;7.35;2.65;;;;;;;24.41;52.84;100370.08;1691054;83;21587;-74
2022/06/01 08:04:10;;;;;;;3.72;2.50;;;;;;;24.53;53.11;100368.92;1687108;83;21571;-72
2022/06/01 08:06:38;;;;;;;4.33;2.52;;;;;;;24.66;51.87;100369.39;1705840;83;21297;-73
2022/06/01 08:09:05;;;;;;;5.67;2.75;;;;;;;24.68;51.78;100370.00;1723315;81;21935;-72
2022/06/01 08:14:17;;;;;;;7.37;2.60;;;;;;;24.80;51.52;100371.83;1718006;82;21092;-72
2022/06/01 08:16:47;;;;;;;4.25;2.40;;;;;;;24.96;51.20;100371.84;1717012;81;21052;-70
2022/06/01 08:19:14;;;;;;;5.78;2.45;;;;;;;25.00;50.38;100361.45;1741675;80;21471;-69
2022/06/01 08:21:41;;;;;;;6.58;2.65;;;;;;;24.97;50.43;100364.56;1725733;80;22852;-72
2022/06/01 08:24:08;;;;;;;4.72;2.47;;;;;;;24.96;50.27;100358.33;1751723;80;21499;-70
2022/06/01 08:26:34;;;;;;;5.00;2.60;;;;;;;25.03;50.86;100358.34;1782463;80;21031;-70
2022/06/01 08:29:02;;;;;;;4.95;2.60;;;;;;;25.14;49.89;100354.11;1759736;80;21047;-71
2022/06/01 08:31:31;;;;;;;5.20;2.60;;;;;;;25.21;49.77;100350.33;1709220;83;21129;-72
2022/06/01 08:33:58;;;;;;;7.65;2.67;;;;;;;25.26;50.04;100348.30;1754186;80;21875;-74
2022/06/01 08:36:26;;;;;;;5.47;2.45;;;;;;;25.29;49.22;100347.89;1742842;81;21102;-74
2022/06/01 08:38:52;;;;;;;6.30;2.50;;;;;;;25.25;49.05;100349.35;1734434;81;21047;-73
2022/06/01 08:41:23;;;;;;;4.20;2.60;;;;;;;25.26;49.21;100342.89;1758322;80;21047;-71
2022/06/01 08:43:56;;;;;;;5.35;3.00;;;;;;;25.33;50.10;100349.09;1749840;80;21016;-73
2022/06/01 08:46:23;;;;;;;5.65;2.50;;;;;;;25.48;49.63;100344.70;1724883;80;21874;-73
2022/06/01 08:48:54;;;;;;;4.10;2.80;;;;;;;25.66;49.50;100345.59;1746471;80;21052;-71
2022/06/01 08:51:23;;;;;;;4.25;2.75;;;;;;;25.81;48.06;100342.59;1767005;80;21042;-72
2022/06/01 08:53:50;;;;;;;7.90;2.55;;;;;;;25.86;48.88;100337.33;1717863;83;21539;-70
2022/06/01 08:56:25;;;;;;;5.00;2.70;;;;;;;26.03;48.24;100333.52;1751339;81;21082;-71
2022/06/01 08:59:03;;;;;;;3.90;2.40;;;;;;;26.15;47.26;100336.31;1747370;80;21845;-74
2022/06/01 09:01:56;;;;;;;5.10;2.80;;;;;;;26.25;47.46;100340.18;1749237;80;21231;-72
2022/06/01 09:04:28;;;;;;;4.17;2.40;;;;;;;26.40;46.51;100334.94;1740845;80;21542;-71
2022/06/01 09:07:07;;;;;;;4.30;2.77;;;;;;;26.51;46.39;100335.52;1788572;80;21117;-72
2022/06/01 09:09:48;;;;;;;7.62;2.98;;;;;;;26.64;46.03;100339.97;1756199;80;21040;-71
2022/06/01 09:12:17;;;;;;;5.15;2.50;;;;;;;26.76;46.00;100336.25;1764416;80;21944;-71
2022/06/01 09:14:45;;;;;;;6.03;2.98;;;;;;;26.91;44.50;100341.25;1766731;80;21538;-73
2022/06/01 09:17:11;;;;;;;5.28;2.65;;;;;;;26.91;44.49;100336.36;1757992;80;21091;-74
2022/06/01 09:22:38;;;;;;;5.67;2.47;;;;;;;27.22;44.84;100335.34;1757510;80;21011;-76
2022/06/01 09:25:15;;;;;;;4.75;2.83;;;;;;;27.45;44.47;100334.55;1752444;80;22566;-71
2022/06/01 09:27:53;;;;;;;6.40;2.90;;;;;;;27.62;43.51;100330.09;1718723;81;21132;-72
2022/06/01 09:30:35;;;;;;;5.03;2.72;;;;;;;27.74;44.01;100329.59;1756131;80;20984;-71
2022/06/01 09:33:28;;;;;;;6.65;2.60;;;;;;;27.87;43.52;100323.92;1761944;80;21063;-75
2022/06/01 09:36:12;;;;;;;8.23;2.80;;;;;;;27.95;42.21;100326.81;1759447;80;21427;-73
2022/06/01 09:38:51;;;;;;;3.77;2.33;;;;;;;27.97;42.42;100318.42;1751399;79;21834;-72
2022/06/01 09:41:36;;;;;;;5.55;2.58;;;;;;;28.05;42.16;100315.35;1691642;83;21010;-72
2022/06/01 09:44:05;;;;;;;3.75;2.35;;;;;;;28.12;41.30;100313.34;1739201;80;21091;-69
2022/06/01 09:46:38;;;;;;;5.07;2.70;;;;;;;28.15;41.12;100315.58;1779148;80;21101;-68
2022/06/01 09:49:15;;;;;;;4.97;2.42;;;;;;;28.22;41.65;100310.84;1761915;79;21787;-69
2022/06/01 09:51:51;;;;;;;5.72;2.62;;;;;;;28.39;41.37;100308.25;1753634;80;21050;-71
2022/06/01 09:54:32;;;;;;;5.17;2.62;;;;;;;28.59;41.42;100301.04;1752190;80;21046;-72
2022/06/01 09:57:16;;;;;;;4.17;2.40;;;;;;;28.80;41.11;100305.79;1691530;84;21166;-70
2022/06/01 10:08:16;;;;;;;6.20;2.45;;;;;;;29.06;39.94;100292.16;1753062;80;21063;-69
2022/06/01 10:11:06;;;;;;;4.97;2.47;;;;;;;29.06;39.94;100292.16;1756773;80;21012;-70
2022/06/01 10:13:38;;;;;;;5.70;2.50;;;;;;;29.24;38.37;100301.96;1706963;82;21074;-71
2022/06/01 10:16:35;;;;;;;5.20;2.60;;;;;;;29.18;38.64;100302.43;1746937;80;21088;-69
2022/06/01 10:18:59;;;;;;;12.65;2.85;;;;;;;29.27;39.41;100303.67;1750720;80;21931;-70
2022/06/01 10:21:31;;;;;;;10.00;2.77;;;;;;;29.43;38.95;100297.92;1747564;80;21020;-69
2022/06/01 10:24:05;;;;;;;7.10;2.60;;;;;;;29.58;38.71;100300.11;1748514;80;21103;-69
2022/06/01 10:26:42;;;;;;;7.03;2.77;;;;;;;29.79;38.49;100291.71;1721812;81;21102;-70
2022/06/01 10:29:19;;;;;;;3.83;2.47;;;;;;;29.97;37.96;100292.78;1750641;80;21072;-72
2022/06/01 10:31:58;;;;;;;4.83;2.60;;;;;;;30.03;37.51;100299.96;1745120;80;22000;-71
2022/06/01 10:34:41;;;;;;;3.98;2.50;;;;;;;30.00;37.01;100299.62;1746249;80;21518;-69
2022/06/01 10:37:31;;;;;;;5.62;2.70;;;;;;;29.96;36.49;100297.95;1747871;80;21051;-71
2022/06/01 10:40:08;;;;;;;5.25;2.60;;;;;;;30.00;37.36;100296.36;1750875;80;21063;-71
2022/06/01 10:45:37;;;;;;;6.03;2.50;;;;;;;30.32;36.26;100293.83;1748740;80;21675;-72
2022/06/01 10:48:15;;;;;;;6.00;2.62;;;;;;;30.35;36.73;100291.13;1750185;80;21011;-73
2022/06/01 10:50:51;;;;;;;5.53;2.33;;;;;;;30.50;36.81;100287.23;1751195;80;21148;-73
2022/06/01 10:53:27;;;;;;;4.83;2.62;;;;;;;30.66;36.31;100288.23;1756771;80;21041;-74
2022/06/01 10:55:54;;;;;;;5.03;2.70;;;;;;;30.80;36.13;100284.58;1754607;80;21040;-72
2022/06/01 10:58:24;;;;;;;7.05;3.58;;;;;;;30.97;36.73;100289.36;1747408;81;21857;-73
2022/06/01 11:01:09;;;;;;;6.90;3.33;;;;;;;31.24;36.36;100283.37;1717776;83;21466;-73
2022/06/01 11:04:00;;;;;;;8.25;3.40;;;;;;;31.54;35.59;100287.42;1750504;80;21502;-73
2022/06/01 11:07:23;;;;;;;5.37;2.40;;;;;;;31.84;35.00;100277.26;1768818;79;21020;-71
2022/06/01 11:10:13;;;;;;;5.35;2.85;;;;;;;32.11;34.32;100273.03;1742726;80;21075;-73
2022/06/01 11:12:49;;;;;;;6.78;2.50;;;;;;;32.08;32.97;100275.77;1760010;80;21796;-68
2022/06/01 11:15:36;;;;;;;5.30;2.55;;;;;;;32.00;33.80;100271.34;1755973;80;21086;-69
2022/06/01 11:18:32;;;;;;;5.97;2.77;;;;;;;32.18;34.07;100273.07;1754900;80;21054;-71
2022/06/01 11:21:22;;;;;;;5.85;2.75;;;;;;;32.36;32.60;100265.52;1741382;80;21050;-73
2022/06/01 11:24:02;;;;;;;8.25;2.52;;;;;;;32.37;33.70;100262.52;1731553;81;21474;-69
2022/06/01 11:26:50;;;;;;;6.53;2.70;;;;;;;32.54;32.85;100261.48;1751035;80;21781;-70
2022/06/01 11:29:44;;;;;;;5.03;2.37;;;;;;;32.58;32.13;100262.56;1762354;80;21027;-70
2022/06/01 11:32:18;;;;;;;6.62;2.47;;;;;;;32.39;32.39;100262.23;1760451;80;21083;-71
2022/06/01 11:34:53;;;;;;;6.00;2.40;;;;;;;32.26;33.34;100266.27;1725603;82;21050;-70
2022/06/01 11:37:31;;;;;;;6.75;2.60;;;;;;;32.36;32.78;100264.97;1711699;80;21506;-70
2022/06/01 11:40:06;;;;;;;7.45;3.00;;;;;;;32.50;33.16;100263.09;1716011;81;21992;-75
2022/06/01 11:43:08;;;;;;;6.58;2.60;;;;;;;32.73;33.07;100263.43;1752231;80;21080;-73
2022/06/01 11:45:55;;;;;;;;;;;;;;;32.99;32.48;100267.03;1755972;80;21017;-71
2022/06/01 11:48:36;;;;;;;5.15;2.37;;;;;;;33.23;32.76;100272.80;1762053;80;20174;-74
2022/06/01 11:51:22;;;;;;;5.30;2.30;;;;;;;33.24;31.33;100266.77;1767132;80;21036;-71
2022/06/01 11:54:05;;;;;;;7.30;2.47;;;;;;;33.15;31.70;100269.78;1716104;82;21820;-71
2022/06/01 11:57:05;;;;;;;4.58;2.40;;;;;;;33.30;32.23;100266.50;1751813;81;21075;-70
2022/06/01 11:59:47;;;;;;;7.60;2.90;;;;;;;33.59;31.89;100266.77;1755210;80;21105;-73
2022/06/01 12:02:40;;;;;;;8.43;2.75;;;;;;;33.83;31.36;100269.72;1727651;81;21007;-71
2022/06/01 12:05:22;;;;;;;5.33;2.50;;;;;;;34.04;29.92;100269.12;1719122;81;21071;-70
2022/06/01 12:07:52;;;;;;;8.20;2.85;;;;;;;34.02;30.78;100271.33;1719398;80;21927;-74
2022/06/01 12:10:54;;;;;;;5.53;2.47;;;;;;;34.13;30.97;100263.89;1735581;80;21031;-74
2022/06/01 12:13:38;;;;;;;4.90;2.60;;;;;;;34.31;31.04;100267.92;1734592;80;21046;-73